sensor_id;sensor_type;location;lat;lon;timestamp;temperature;humidity
49321;DHT22;35817;44.498;0.166;2022-08-24T03:32:18;18.80;99.90
49321;DHT22;35817;44.498;0.166;2022-08-24T03:34:47;18.70;99.90
49321;DHT22;35817;44.498;0.166;2022-08-24T03:37:12;18.70;99.90
49321;DHT22;35817;44.498;0.166;2022-08-24T03:39:38;18.60;99.90
49321;DHT22;35817;44.498;0.166;2022-08-24T03:42:07;18.60;99.90
49321;DHT22;35817;44.498;0.166;2022-08-24T03:44:36;18.60;99.90
49321;DHT22;35817;44.498;0.166;2022-08-24T03:47:05;18.50;99.90
49321;DHT22;35817;44.498;0.166;2022-08-24T03:49:32;18.50;99.90
49321;DHT22;35817;44.498;0.166;2022-08-24T03:51:59;18.50;99.90
49321;DHT22;35817;44.498;0.166;2022-08-24T03:54:28;18.50;99.90
49321;DHT22;35817;44.498;0.166;2022-08-24T03:56:54;18.50;99.90
49321;DHT22;35817;44.498;0.166;2022-08-24T03:59:28;18.50;99.90
49321;DHT22;35817;44.498;0.166;2022-08-24T04:05:03;18.50;99.90
49321;DHT22;35817;44.498;0.166;2022-08-24T04:07:35;18.40;99.90
49321;DHT22;35817;44.498;0.166;2022-08-24T04:10:23;18.40;99.90
49321;DHT22;35817;44.498;0.166;2022-08-24T04:13:15;18.40;99.90
49321;DHT22;35817;44.498;0.166;2022-08-24T04:16:04;18.40;99.90
49321;DHT22;35817;44.498;0.166;2022-08-24T04:18:38;18.40;99.90
49321;DHT22;35817;44.498;0.166;2022-08-24T04:21:30;18.40;99.90
49321;DHT22;35817;44.498;0.166;2022-08-24T04:24:00;18.40;99.90
49321;DHT22;35817;44.498;0.166;2022-08-24T04:26:37;18.40;99.90
49321;DHT22;35817;44.498;0.166;2022-08-24T04:32:07;18.50;99.90
49321;DHT22;35817;44.498;0.166;2022-08-24T04:34:42;18.50;99.90
49321;DHT22;35817;44.498;0.166;2022-08-24T04:37:10;18.50;99.90
49321;DHT22;35817;44.498;0.166;2022-08-24T04:39:37;18.50;99.90
49321;DHT22;35817;44.498;0.166;2022-08-24T04:42:09;18.50;99.90
49321;DHT22;35817;44.498;0.166;2022-08-24T04:44:35;18.50;99.90
49321;DHT22;35817;44.498;0.166;2022-08-24T04:47:22;18.40;99.90
49321;DHT22;35817;44.498;0.166;2022-08-24T04:52:27;18.50;99.90
49321;DHT22;35817;44.498;0.166;2022-08-24T04:54:55;18.40;99.90
49321;DHT22;35817;44.498;0.166;2022-08-24T04:57:24;18.40;99.90
49321;DHT22;35817;44.498;0.166;2022-08-24T05:03:21;18.30;99.90
49321;DHT22;35817;44.498;0.166;2022-08-24T05:05:57;18.20;99.90
49321;DHT22;35817;44.498;0.166;2022-08-24T05:08:31;18.20;99.90
49321;DHT22;35817;44.498;0.166;2022-08-24T05:11:14;18.10;99.90
49321;DHT22;35817;44.498;0.166;2022-08-24T05:14:03;18.10;99.90
49321;DHT22;35817;44.498;0.166;2022-08-24T05:17:06;18.00;99.90
49321;DHT22;35817;44.498;0.166;2022-08-24T05:19:27;18.00;99.90
49321;DHT22;35817;44.498;0.166;2022-08-24T05:21:58;18.00;99.90
49321;DHT22;35817;44.498;0.166;2022-08-24T05:24:42;18.00;99.90
49321;DHT22;35817;44.498;0.166;2022-08-24T05:27:32;18.00;99.90
49321;DHT22;35817;44.498;0.166;2022-08-24T05:30:12;18.00;99.90
49321;DHT22;35817;44.498;0.166;2022-08-24T05:33:07;18.20;99.90
49321;DHT22;35817;44.498;0.166;2022-08-24T05:35:36;18.10;99.90
49321;DHT22;35817;44.498;0.166;2022-08-24T05:38:11;18.20;99.90
49321;DHT22;35817;44.498;0.166;2022-08-24T05:40:46;18.10;99.90
49321;DHT22;35817;44.498;0.166;2022-08-24T05:43:14;18.10;99.90
49321;DHT22;35817;44.498;0.166;2022-08-24T05:46:44;18.20;99.90
49321;DHT22;35817;44.498;0.166;2022-08-24T05:49:05;18.20;99.90
49321;DHT22;35817;44.498;0.166;2022-08-24T05:51:33;18.10;99.90
49321;DHT22;35817;44.498;0.166;2022-08-24T05:54:32;18.10;99.90
49321;DHT22;35817;44.498;0.166;2022-08-24T05:57:05;18.10;99.90
49321;DHT22;35817;44.498;0.166;2022-08-24T05:59:31;18.20;99.90
49321;DHT22;35817;44.498;0.166;2022-08-24T06:01:57;18.30;99.90
49321;DHT22;35817;44.498;0.166;2022-08-24T06:04:23;18.30;99.90
49321;DHT22;35817;44.498;0.166;2022-08-24T06:06:49;18.40;99.90
49321;DHT22;35817;44.498;0.166;2022-08-24T06:09:15;18.50;99.90
49321;DHT22;35817;44.498;0.166;2022-08-24T06:11:41;18.50;99.90
49321;DHT22;35817;44.498;0.166;2022-08-24T06:14:12;18.60;99.90
49321;DHT22;35817;44.498;0.166;2022-08-24T06:16:41;18.60;99.90
49321;DHT22;35817;44.498;0.166;2022-08-24T06:19:08;18.70;99.90
49321;DHT22;35817;44.498;0.166;2022-08-24T06:21:35;18.70;99.90
49321;DHT22;35817;44.498;0.166;2022-08-24T06:24:05;18.80;99.90
49321;DHT22;35817;44.498;0.166;2022-08-24T06:26:35;18.90;99.90
49321;DHT22;35817;44.498;0.166;2022-08-24T06:58:07;19.70;99.90
49321;DHT22;35817;44.498;0.166;2022-08-24T07:00:43;19.80;99.90
49321;DHT22;35817;44.498;0.166;2022-08-24T07:03:28;19.90;99.90
49321;DHT22;35817;44.498;0.166;2022-08-24T07:05:56;19.90;99.90
49321;DHT22;35817;44.498;0.166;2022-08-24T07:08:27;20.10;99.90
49321;DHT22;35817;44.498;0.166;2022-08-24T07:10:54;20.20;99.90
49321;DHT22;35817;44.498;0.166;2022-08-24T07:13:20;20.30;99.90
49321;DHT22;35817;44.498;0.166;2022-08-24T07:15:46;20.50;99.90
49321;DHT22;35817;44.498;0.166;2022-08-24T07:18:16;20.60;99.90
49321;DHT22;35817;44.498;0.166;2022-08-24T07:20:42;20.90;99.90
49321;DHT22;35817;44.498;0.166;2022-08-24T07:23:08;21.00;99.90
49321;DHT22;35817;44.498;0.166;2022-08-24T07:25:37;21.20;99.90
49321;DHT22;35817;44.498;0.166;2022-08-24T07:28:03;21.30;99.90
49321;DHT22;35817;44.498;0.166;2022-08-24T07:30:29;21.50;99.90
49321;DHT22;35817;44.498;0.166;2022-08-24T07:32:55;21.60;99.90
49321;DHT22;35817;44.498;0.166;2022-08-24T07:35:23;21.70;99.90
49321;DHT22;35817;44.498;0.166;2022-08-24T07:37:48;21.90;99.90
49321;DHT22;35817;44.498;0.166;2022-08-24T07:40:15;22.00;99.90
49321;DHT22;35817;44.498;0.166;2022-08-24T07:42:41;22.20;99.90
49321;DHT22;35817;44.498;0.166;2022-08-24T07:45:07;22.30;99.90
49321;DHT22;35817;44.498;0.166;2022-08-24T07:47:33;22.50;99.90
49321;DHT22;35817;44.498;0.166;2022-08-24T07:49:59;22.60;99.90
49321;DHT22;35817;44.498;0.166;2022-08-24T07:52:25;22.70;99.90
49321;DHT22;35817;44.498;0.166;2022-08-24T07:54:50;22.80;99.90
49321;DHT22;35817;44.498;0.166;2022-08-24T07:57:16;22.90;99.90
49321;DHT22;35817;44.498;0.166;2022-08-24T07:59:42;22.90;99.90
49321;DHT22;35817;44.498;0.166;2022-08-24T08:02:07;22.90;99.90
49321;DHT22;35817;44.498;0.166;2022-08-24T08:04:35;22.90;99.70
49321;DHT22;35817;44.498;0.166;2022-08-24T08:07:00;22.80;99.60
49321;DHT22;35817;44.498;0.166;2022-08-24T08:09:26;22.80;99.40
49321;DHT22;35817;44.498;0.166;2022-08-24T08:11:52;22.80;99.20
49321;DHT22;35817;44.498;0.166;2022-08-24T08:14:18;22.90;99.20
49321;DHT22;35817;44.498;0.166;2022-08-24T08:16:44;23.00;99.10
49321;DHT22;35817;44.498;0.166;2022-08-24T08:19:09;23.00;98.90
49321;DHT22;35817;44.498;0.166;2022-08-24T08:21:42;23.10;98.70
49321;DHT22;35817;44.498;0.166;2022-08-24T08:24:28;23.20;98.40
49321;DHT22;35817;44.498;0.166;2022-08-24T08:26:53;23.30;98.00
49321;DHT22;35817;44.498;0.166;2022-08-24T08:29:19;23.30;97.40
49321;DHT22;35817;44.498;0.166;2022-08-24T08:34:57;23.60;96.60
49321;DHT22;35817;44.498;0.166;2022-08-24T08:37:23;23.70;96.30
49321;DHT22;35817;44.498;0.166;2022-08-24T08:39:50;23.80;96.00
49321;DHT22;35817;44.498;0.166;2022-08-24T08:45:12;24.00;95.50
49321;DHT22;35817;44.498;0.166;2022-08-24T08:50:38;24.30;94.60
49321;DHT22;35817;44.498;0.166;2022-08-24T09:22:42;26.30;89.80
49321;DHT22;35817;44.498;0.166;2022-08-24T09:25:32;26.50;88.60
49321;DHT22;35817;44.498;0.166;2022-08-24T09:36:49;27.70;82.20
49321;DHT22;35817;44.498;0.166;2022-08-24T09:39:31;28.00;81.20
49321;DHT22;35817;44.498;0.166;2022-08-24T11:50:06;46.90;36.00
49321;DHT22;35817;44.498;0.166;2022-08-24T11:55:57;47.50;36.20
49321;DHT22;35817;44.498;0.166;2022-08-24T11:58:31;47.50;35.20
49321;DHT22;35817;44.498;0.166;2022-08-24T12:01:13;47.40;33.90
49321;DHT22;35817;44.498;0.166;2022-08-24T12:07:16;47.40;33.50
49321;DHT22;35817;44.498;0.166;2022-08-24T12:09:55;47.60;33.50
49321;DHT22;35817;44.498;0.166;2022-08-24T12:12:32;47.60;33.50
49321;DHT22;35817;44.498;0.166;2022-08-24T12:17:45;47.70;33.50
49321;DHT22;35817;44.498;0.166;2022-08-24T12:22:42;47.10;34.00
49321;DHT22;35817;44.498;0.166;2022-08-24T12:25:10;46.70;34.30
49321;DHT22;35817;44.498;0.166;2022-08-24T12:27:58;47.00;34.20
49321;DHT22;35817;44.498;0.166;2022-08-24T12:30:24;47.50;33.70
49321;DHT22;35817;44.498;0.166;2022-08-24T12:32:54;47.80;33.70
49321;DHT22;35817;44.498;0.166;2022-08-24T12:35:38;47.60;33.70
49321;DHT22;35817;44.498;0.166;2022-08-24T12:38:26;47.80;33.50
49321;DHT22;35817;44.498;0.166;2022-08-24T12:44:20;47.90;32.60
49321;DHT22;35817;44.498;0.166;2022-08-24T12:49:51;48.00;32.60
49321;DHT22;35817;44.498;0.166;2022-08-24T12:52:57;47.80;32.90
49321;DHT22;35817;44.498;0.166;2022-08-24T12:58:28;48.50;32.50
49321;DHT22;35817;44.498;0.166;2022-08-24T13:00:57;49.10;32.30
49321;DHT22;35817;44.498;0.166;2022-08-24T13:03:33;49.60;32.00
49321;DHT22;35817;44.498;0.166;2022-08-24T13:06:39;50.10;31.50
49321;DHT22;35817;44.498;0.166;2022-08-24T13:09:28;50.00;31.20
49321;DHT22;35817;44.498;0.166;2022-08-24T13:11:54;49.60;31.60
49321;DHT22;35817;44.498;0.166;2022-08-24T13:14:25;49.70;31.40
49321;DHT22;35817;44.498;0.166;2022-08-24T13:21:53;51.10;30.30
49321;DHT22;35817;44.498;0.166;2022-08-24T13:26:55;50.80;30.40
49321;DHT22;35817;44.498;0.166;2022-08-24T13:29:23;50.80;30.10
49321;DHT22;35817;44.498;0.166;2022-08-24T13:31:52;51.00;30.00
49321;DHT22;35817;44.498;0.166;2022-08-24T13:34:41;51.50;29.70
49321;DHT22;35817;44.498;0.166;2022-08-24T13:48:37;52.60;29.50
49321;DHT22;35817;44.498;0.166;2022-08-24T13:56:54;53.00;29.20
49321;DHT22;35817;44.498;0.166;2022-08-24T13:59:41;52.70;29.30
49321;DHT22;35817;44.498;0.166;2022-08-24T14:02:22;52.40;29.10
49321;DHT22;35817;44.498;0.166;2022-08-24T14:12:59;52.30;29.20
49321;DHT22;35817;44.498;0.166;2022-08-24T14:21:37;52.80;28.90
49321;DHT22;35817;44.498;0.166;2022-08-24T14:24:17;53.00;28.90
49321;DHT22;35817;44.498;0.166;2022-08-24T14:26:59;52.50;29.00
49321;DHT22;35817;44.498;0.166;2022-08-24T14:33:03;52.30;29.00
49321;DHT22;35817;44.498;0.166;2022-08-24T14:38:55;52.30;28.60
49321;DHT22;35817;44.498;0.166;2022-08-24T14:41:37;51.90;28.60
49321;DHT22;35817;44.498;0.166;2022-08-24T14:46:49;51.70;28.90
49321;DHT22;35817;44.498;0.166;2022-08-24T14:57:11;52.50;29.00
49321;DHT22;35817;44.498;0.166;2022-08-24T14:59:56;52.80;29.00
49321;DHT22;35817;44.498;0.166;2022-08-24T15:05:12;53.70;28.60
49321;DHT22;35817;44.498;0.166;2022-08-24T15:07:39;54.20;28.60
49321;DHT22;35817;44.498;0.166;2022-08-24T15:10:11;54.50;28.20
49321;DHT22;35817;44.498;0.166;2022-08-24T15:12:41;54.70;28.10
49321;DHT22;35817;44.498;0.166;2022-08-24T15:17:49;54.00;28.40
49321;DHT22;35817;44.498;0.166;2022-08-24T15:20:20;54.10;28.20
49321;DHT22;35817;44.498;0.166;2022-08-24T15:22:53;54.30;28.20
49321;DHT22;35817;44.498;0.166;2022-08-24T15:28:10;54.70;28.20
49321;DHT22;35817;44.498;0.166;2022-08-24T15:30:39;54.40;28.10
49321;DHT22;35817;44.498;0.166;2022-08-24T15:33:09;54.20;28.40
49321;DHT22;35817;44.498;0.166;2022-08-24T15:35:39;54.00;28.20
49321;DHT22;35817;44.498;0.166;2022-08-24T15:38:21;53.80;28.30
49321;DHT22;35817;44.498;0.166;2022-08-24T15:40:49;53.70;28.30
49321;DHT22;35817;44.498;0.166;2022-08-24T15:43:20;53.30;28.20
49321;DHT22;35817;44.498;0.166;2022-08-24T15:45:51;53.00;28.10
49321;DHT22;35817;44.498;0.166;2022-08-24T15:48:17;52.70;28.80
49321;DHT22;35817;44.498;0.166;2022-08-24T15:50:45;52.40;28.20
49321;DHT22;35817;44.498;0.166;2022-08-24T15:53:36;52.10;28.20
49321;DHT22;35817;44.498;0.166;2022-08-24T15:56:23;51.30;28.40
49321;DHT22;35817;44.498;0.166;2022-08-24T15:58:50;50.80;28.90
49321;DHT22;35817;44.498;0.166;2022-08-24T16:01:58;50.10;29.20
49321;DHT22;35817;44.498;0.166;2022-08-24T21:59:14;24.80;75.20
49321;DHT22;35817;44.498;0.166;2022-08-24T22:01:40;24.70;75.50
49321;DHT22;35817;44.498;0.166;2022-08-24T22:04:08;24.60;76.00
49321;DHT22;35817;44.498;0.166;2022-08-24T22:06:37;24.60;76.40
49321;DHT22;35817;44.498;0.166;2022-08-24T22:09:07;24.50;76.40
49321;DHT22;35817;44.498;0.166;2022-08-24T22:11:33;24.40;76.40
49321;DHT22;35817;44.498;0.166;2022-08-24T22:14:00;24.40;76.30
49321;DHT22;35817;44.498;0.166;2022-08-24T22:16:28;24.40;76.90
49321;DHT22;35817;44.498;0.166;2022-08-24T22:18:55;24.50;77.40
49321;DHT22;35817;44.498;0.166;2022-08-24T22:21:22;24.60;77.40
49321;DHT22;35817;44.498;0.166;2022-08-24T22:23:50;24.60;77.60
49321;DHT22;35817;44.498;0.166;2022-08-24T22:26:22;24.70;77.50
49321;DHT22;35817;44.498;0.166;2022-08-24T22:28:48;24.70;77.60
49321;DHT22;35817;44.498;0.166;2022-08-24T22:31:28;24.70;77.70
49321;DHT22;35817;44.498;0.166;2022-08-24T22:33:55;24.60;77.50
49321;DHT22;35817;44.498;0.166;2022-08-24T22:36:22;24.60;77.50
49321;DHT22;35817;44.498;0.166;2022-08-24T22:38:48;24.60;77.70
49321;DHT22;35817;44.498;0.166;2022-08-24T22:41:14;24.60;78.80
49321;DHT22;35817;44.498;0.166;2022-08-24T22:43:42;24.60;79.40
49321;DHT22;35817;44.498;0.166;2022-08-24T22:46:27;24.50;80.00
49321;DHT22;35817;44.498;0.166;2022-08-24T22:48:55;24.40;80.60
49321;DHT22;35817;44.498;0.166;2022-08-24T22:51:24;24.40;81.20
49321;DHT22;35817;44.498;0.166;2022-08-24T22:53:50;24.30;82.30
49321;DHT22;35817;44.498;0.166;2022-08-24T23:14:34;23.60;86.10
49321;DHT22;35817;44.498;0.166;2022-08-24T23:18:07;23.60;86.20
49321;DHT22;35817;44.498;0.166;2022-08-24T23:21:31;23.60;86.50
49321;DHT22;35817;44.498;0.166;2022-08-24T23:27:45;23.50;87.30
49321;DHT22;35817;44.498;0.166;2022-08-24T23:31:02;23.50;87.30
49321;DHT22;35817;44.498;0.166;2022-08-24T23:34:27;23.50;87.50
49321;DHT22;35817;44.498;0.166;2022-08-24T23:43:57;23.40;88.80
49321;DHT22;35817;44.498;0.166;2022-08-24T23:50:09;23.30;89.90
49321;DHT22;35817;44.498;0.166;2022-08-24T23:52:35;23.30;89.70
49321;DHT22;35817;44.498;0.166;2022-08-24T23:55:08;23.30;90.00
49321;DHT22;35817;44.498;0.166;2022-08-24T23:57:41;23.30;90.00
